createdAt,value
2024-03-10T00:00:53.309Z,9.50
2024-03-10T00:03:55.397Z,9.50
2024-03-10T00:06:57.114Z,9.50
2024-03-10T00:09:59.856Z,9.50
2024-03-10T00:13:02.142Z,9.50
2024-03-10T00:16:04.149Z,9.50
2024-03-10T00:19:05.857Z,9.50
2024-03-10T00:22:07.507Z,9.50
2024-03-10T00:25:09.860Z,9.50
2024-03-10T00:28:12.335Z,9.30
2024-03-10T00:31:13.977Z,9.00
2024-03-10T00:34:15.805Z,8.70
2024-03-10T00:37:17.685Z,8.50
2024-03-10T00:40:19.432Z,8.30
2024-03-10T00:43:21.131Z,8.20
2024-03-10T00:46:23.203Z,8.10
2024-03-10T00:49:25.974Z,8.30
2024-03-10T00:52:27.648Z,8.40
2024-03-10T00:55:30.247Z,8.50
2024-03-10T00:58:34.064Z,8.60
2024-03-10T01:01:35.749Z,8.70
2024-03-10T01:04:37.564Z,8.70
2024-03-10T01:07:39.593Z,8.60
2024-03-10T01:10:41.309Z,8.70
2024-03-10T01:13:44.809Z,8.80
2024-03-10T01:16:47.650Z,8.80
2024-03-10T01:19:49.511Z,8.80
2024-03-10T01:22:51.190Z,8.80
2024-03-10T01:25:52.909Z,8.80
2024-03-10T01:28:54.576Z,8.70
2024-03-10T01:31:57.416Z,8.50
2024-03-10T01:34:59.383Z,8.50
2024-03-10T01:38:01.918Z,8.40
2024-03-10T01:41:03.992Z,8.40
2024-03-10T01:44:08.961Z,8.30
2024-03-10T01:47:12.099Z,8.20
2024-03-10T01:50:14.157Z,8.00
2024-03-10T01:53:15.948Z,7.90
2024-03-10T01:56:19.658Z,7.80
2024-03-10T01:59:22.837Z,7.70
2024-03-10T02:02:24.715Z,7.70
2024-03-10T02:05:27.750Z,7.60
2024-03-10T02:08:29.878Z,7.50
2024-03-10T02:11:31.879Z,7.40
2024-03-10T02:14:33.681Z,7.40
2024-03-10T02:17:38.008Z,7.50
2024-03-10T02:20:41.161Z,7.60
2024-03-10T02:24:00.137Z,7.70
2024-03-10T02:27:02.625Z,7.80
2024-03-10T02:30:20.606Z,7.90
2024-03-10T02:33:41.389Z,7.90
2024-03-10T02:37:02.366Z,7.90
2024-03-10T02:40:23.219Z,7.80
2024-03-10T02:43:43.606Z,7.80
2024-03-10T02:47:04.213Z,7.80
2024-03-10T02:50:07.140Z,7.80
2024-03-10T02:53:11.140Z,7.90
2024-03-10T02:56:13.038Z,8.00
2024-03-10T02:59:15.824Z,8.00
2024-03-10T03:02:20.217Z,8.10
2024-03-10T03:05:22.961Z,8.10
2024-03-10T03:08:25.978Z,8.10
2024-03-10T03:11:27.734Z,8.20
2024-03-10T03:14:29.403Z,8.20
2024-03-10T03:17:32.430Z,8.30
2024-03-10T03:20:36.485Z,8.40
2024-03-10T03:23:38.278Z,8.30
2024-03-10T03:26:39.962Z,8.10
2024-03-10T03:29:41.627Z,7.90
2024-03-10T03:32:46.614Z,7.90
2024-03-10T03:35:49.156Z,7.80
2024-03-10T03:38:50.976Z,7.80
2024-03-10T03:41:52.586Z,7.70
2024-03-10T03:44:54.290Z,7.80
2024-03-10T03:47:56.045Z,7.70
2024-03-10T03:50:57.733Z,7.60
2024-03-10T03:53:59.373Z,7.50
2024-03-10T03:57:01.335Z,7.60
2024-03-10T04:00:06.804Z,7.60
2024-03-10T04:03:10.943Z,7.60
2024-03-10T04:06:13.399Z,7.60
2024-03-10T04:09:15.067Z,7.60
2024-03-10T04:12:16.908Z,7.60
2024-03-10T04:15:18.648Z,7.60
2024-03-10T04:18:20.487Z,7.60
2024-03-10T04:21:22.263Z,7.50
2024-03-10T04:24:23.889Z,7.50
2024-03-10T04:27:25.528Z,7.40
2024-03-10T04:30:27.488Z,7.40
2024-03-10T04:33:29.151Z,7.40
2024-03-10T04:36:30.963Z,7.40
2024-03-10T04:39:32.820Z,7.40
2024-03-10T04:42:41.198Z,7.30
2024-03-10T04:45:42.866Z,7.30
2024-03-10T04:48:44.736Z,7.30
2024-03-10T04:51:46.506Z,7.30
2024-03-10T04:54:48.234Z,7.20
2024-03-10T04:57:49.908Z,7.30
2024-03-10T05:00:51.633Z,7.30
2024-03-10T05:03:54.122Z,7.20
2024-03-10T05:06:56.770Z,7.20
2024-03-10T05:09:59.455Z,7.20
2024-03-10T05:13:01.771Z,7.10
2024-03-10T05:16:07.120Z,7.10
2024-03-10T05:19:09.684Z,7.10
2024-03-10T05:22:11.515Z,7.10
2024-03-10T05:25:13.286Z,7.10
2024-03-10T05:28:14.988Z,7.00
2024-03-10T05:31:35.027Z,7.10
2024-03-10T05:34:36.847Z,7.10
2024-03-10T05:37:38.644Z,7.10
2024-03-10T05:40:40.297Z,7.00
2024-03-10T05:43:43.897Z,7.10
2024-03-10T05:46:47.636Z,7.00
2024-03-10T05:49:49.516Z,7.00
2024-03-10T05:52:51.275Z,7.00
2024-03-10T05:55:53.619Z,7.00
2024-03-10T05:58:55.407Z,7.00
2024-03-10T06:01:57.324Z,7.00
2024-03-10T06:04:59.067Z,7.00
2024-03-10T06:08:00.990Z,7.00
2024-03-10T06:11:02.745Z,7.10
2024-03-10T06:14:04.983Z,7.10
2024-03-10T06:17:09.336Z,7.10
2024-03-10T06:20:30.047Z,7.10
2024-03-10T06:23:50.440Z,7.20
2024-03-10T06:26:52.093Z,7.30
2024-03-10T06:29:53.815Z,7.30
2024-03-10T06:32:55.596Z,7.40
2024-03-10T06:35:59.551Z,7.50
2024-03-10T06:39:01.481Z,7.60
2024-03-10T06:42:03.306Z,7.60
2024-03-10T06:45:08.029Z,7.60
2024-03-10T06:48:11.889Z,7.70
2024-03-10T06:51:13.964Z,7.70
2024-03-10T06:54:15.690Z,7.80
2024-03-10T06:57:18.113Z,7.90
2024-03-10T07:00:23.664Z,7.90
2024-03-10T07:03:25.540Z,8.00
2024-03-10T07:06:28.659Z,8.00
2024-03-10T07:09:30.358Z,8.00
2024-03-10T07:12:32.284Z,8.00
2024-03-10T07:15:33.962Z,7.90
2024-03-10T07:18:38.115Z,8.00
2024-03-10T07:21:39.776Z,8.00
2024-03-10T07:24:41.610Z,8.00
2024-03-10T07:27:44.363Z,8.10
2024-03-10T07:30:46.096Z,8.10
2024-03-10T07:33:47.892Z,8.20
2024-03-10T07:36:49.603Z,8.20
2024-03-10T07:39:51.359Z,8.30
2024-03-10T07:42:53.182Z,8.40
2024-03-10T07:45:55.288Z,8.50
2024-03-10T07:49:02.109Z,8.40
2024-03-10T07:52:06.194Z,8.50
2024-03-10T07:55:08.592Z,8.40
2024-03-10T07:58:10.500Z,8.40
2024-03-10T08:01:12.892Z,8.50
2024-03-10T08:04:14.673Z,8.60
2024-03-10T08:07:17.041Z,8.70
2024-03-10T08:10:20.024Z,8.70
2024-03-10T08:13:21.702Z,8.70
2024-03-10T08:16:23.457Z,8.70
2024-03-10T08:19:26.917Z,8.60
2024-03-10T08:22:28.531Z,8.70
2024-03-10T08:25:31.330Z,8.70
2024-03-10T08:28:33.107Z,8.60
2024-03-10T08:31:35.009Z,8.70
2024-03-10T08:34:36.760Z,8.70
2024-03-10T08:37:39.505Z,8.90
2024-03-10T08:40:42.312Z,9.10
2024-03-10T08:43:44.942Z,9.20
2024-03-10T08:46:47.310Z,9.30
2024-03-10T08:49:49.029Z,9.40
2024-03-10T08:52:50.786Z,9.60
2024-03-10T08:55:52.690Z,9.70
2024-03-10T08:58:55.109Z,9.70
2024-03-10T09:01:56.895Z,9.90
2024-03-10T09:04:58.615Z,10.10
2024-03-10T09:08:00.433Z,10.30
2024-03-10T09:11:07.469Z,10.50
2024-03-10T09:14:09.345Z,10.50
2024-03-10T09:17:12.866Z,10.50
2024-03-10T09:20:15.898Z,10.60
2024-03-10T09:23:17.999Z,10.60
2024-03-10T09:26:21.561Z,10.70
2024-03-10T09:29:29.317Z,11.00
2024-03-10T09:32:31.412Z,11.10
2024-03-10T09:35:36.885Z,11.10
2024-03-10T09:38:38.947Z,10.80
2024-03-10T09:41:45.156Z,10.90
2024-03-10T09:44:47.514Z,11.00
2024-03-10T09:47:50.900Z,10.90
2024-03-10T09:50:53.835Z,10.70
2024-03-10T09:53:55.688Z,10.70
2024-03-10T09:56:57.449Z,10.70
2024-03-10T10:00:02.282Z,10.80
2024-03-10T10:03:09.849Z,10.90
2024-03-10T10:06:14.020Z,11.00
2024-03-10T10:09:19.000Z,11.10
2024-03-10T10:12:20.703Z,11.10
2024-03-10T10:15:27.537Z,11.10
2024-03-10T10:18:31.331Z,11.20
2024-03-10T10:21:36.675Z,11.30
2024-03-10T10:24:38.383Z,11.30
2024-03-10T10:27:50.832Z,11.30
2024-03-10T10:30:52.693Z,11.40
2024-03-10T10:33:54.397Z,11.50
2024-03-10T10:36:57.501Z,11.60
2024-03-10T10:40:01.002Z,11.70
2024-03-10T10:43:05.514Z,11.70
2024-03-10T10:46:11.463Z,11.80
2024-03-10T10:49:14.755Z,11.90
2024-03-10T10:52:16.715Z,11.90
2024-03-10T10:55:21.047Z,12.00
2024-03-10T10:58:24.375Z,12.00
2024-03-10T11:01:26.693Z,12.00
2024-03-10T11:04:28.482Z,12.00
2024-03-10T11:07:36.456Z,12.10
2024-03-10T11:10:50.231Z,12.30
2024-03-10T11:13:57.293Z,12.40
2024-03-10T11:17:14.143Z,12.40
2024-03-10T11:20:16.941Z,12.40
2024-03-10T11:23:27.469Z,12.50
2024-03-10T11:26:29.642Z,12.50
2024-03-10T11:29:31.701Z,12.50
2024-03-10T11:32:35.611Z,12.50
2024-03-10T11:35:37.496Z,12.40
2024-03-10T11:38:39.326Z,12.30
2024-03-10T11:41:41.539Z,12.30
2024-03-10T11:44:43.505Z,12.40
2024-03-10T11:47:45.272Z,12.50
2024-03-10T11:50:49.326Z,12.60
2024-03-10T11:53:52.315Z,12.70
2024-03-10T11:56:54.313Z,12.80
2024-03-10T11:59:56.472Z,12.80
2024-03-10T12:02:58.444Z,12.80
2024-03-10T12:06:00.465Z,12.90
2024-03-10T12:09:13.407Z,13.00
2024-03-10T12:12:18.445Z,13.10
2024-03-10T12:15:22.592Z,13.10
2024-03-10T12:18:24.588Z,13.20
2024-03-10T12:21:30.430Z,13.20
2024-03-10T12:24:33.893Z,13.40
2024-03-10T12:27:37.054Z,13.30
2024-03-10T12:30:43.924Z,13.30
2024-03-10T12:33:51.405Z,13.60
2024-03-10T12:36:53.316Z,13.80
2024-03-10T12:39:56.537Z,13.80
2024-03-10T12:42:58.634Z,13.90
2024-03-10T12:46:02.711Z,13.80
2024-03-10T12:49:04.396Z,13.90
2024-03-10T12:52:06.395Z,14.10
2024-03-10T12:55:11.062Z,14.20
2024-03-10T12:58:15.852Z,14.10
2024-03-10T13:01:17.923Z,14.10
2024-03-10T13:04:19.864Z,14.10
2024-03-10T13:07:21.630Z,14.10
2024-03-10T13:10:24.293Z,14.00
2024-03-10T13:13:25.999Z,13.90
2024-03-10T13:16:28.751Z,13.80
2024-03-10T13:19:30.503Z,13.70
2024-03-10T13:22:32.168Z,13.70
2024-03-10T13:25:34.149Z,13.70
2024-03-10T13:28:35.974Z,13.60
2024-03-10T13:31:37.662Z,13.40
2024-03-10T13:34:42.295Z,13.40
2024-03-10T13:37:47.646Z,13.40
2024-03-10T13:40:51.723Z,13.40
2024-03-10T13:43:54.434Z,13.20
2024-03-10T13:46:56.596Z,13.30
2024-03-10T13:49:59.894Z,13.30
2024-03-10T13:53:02.054Z,13.20
2024-03-10T13:56:05.407Z,13.10
2024-03-10T13:59:08.707Z,13.00
2024-03-10T14:02:10.576Z,13.00
2024-03-10T14:05:15.429Z,13.00
2024-03-10T14:08:19.173Z,12.90
2024-03-10T14:11:20.981Z,13.00
2024-03-10T14:14:23.305Z,13.00
2024-03-10T14:17:25.645Z,12.90
2024-03-10T14:20:27.922Z,12.90
2024-03-10T14:23:32.762Z,12.90
2024-03-10T14:26:35.124Z,12.90
2024-03-10T14:29:39.441Z,12.90
2024-03-10T14:32:41.853Z,12.80
2024-03-10T14:35:43.940Z,12.90
2024-03-10T14:38:46.485Z,12.80
2024-03-10T14:41:48.761Z,12.80
2024-03-10T14:44:50.700Z,12.80
2024-03-10T14:47:53.558Z,12.80
2024-03-10T14:50:56.790Z,12.80
2024-03-10T14:53:59.593Z,12.90
2024-03-10T14:57:01.667Z,12.90
2024-03-10T15:00:04.557Z,12.80
2024-03-10T15:03:16.759Z,12.70
2024-03-10T15:06:19.453Z,12.70
2024-03-10T15:09:21.076Z,12.70
2024-03-10T15:12:26.268Z,12.70
2024-03-10T15:15:33.544Z,12.70
2024-03-10T15:18:38.144Z,12.80
2024-03-10T15:21:40.977Z,12.80
2024-03-10T15:24:42.698Z,12.80
2024-03-10T15:27:45.428Z,12.80
2024-03-10T15:30:48.141Z,12.90
2024-03-10T15:33:50.428Z,12.90
2024-03-10T15:36:52.266Z,12.90
2024-03-10T15:39:55.371Z,12.80
2024-03-10T15:42:57.771Z,12.80
2024-03-10T15:45:59.794Z,12.80
2024-03-10T15:49:01.754Z,12.80
2024-03-10T15:52:03.699Z,12.90
2024-03-10T15:55:07.152Z,12.80
2024-03-10T16:02:57.175Z,12.70
2024-03-10T16:05:59.780Z,12.70
2024-03-10T16:09:01.922Z,12.80
2024-03-10T16:12:05.293Z,12.80
2024-03-10T16:15:13.477Z,12.80
2024-03-10T16:18:15.857Z,12.70
2024-03-10T16:21:27.437Z,12.70
2024-03-10T16:24:30.366Z,12.50
2024-03-10T16:27:32.295Z,12.50
2024-03-10T16:30:34.063Z,12.50
2024-03-10T16:33:36.581Z,12.50
2024-03-10T16:36:39.356Z,12.50
2024-03-10T16:39:42.671Z,12.40
2024-03-10T16:42:44.577Z,12.40
2024-03-10T16:45:49.377Z,12.40
2024-03-10T16:48:51.064Z,12.30
2024-03-10T16:51:52.788Z,12.30
2024-03-10T16:54:55.507Z,12.30
2024-03-10T16:58:03.582Z,12.30
2024-03-10T17:01:07.980Z,12.30
2024-03-10T17:04:13.328Z,12.30
2024-03-10T17:07:15.022Z,12.20
2024-03-10T17:10:16.939Z,12.20
2024-03-10T17:13:19.025Z,12.20
2024-03-10T17:16:20.920Z,12.10
2024-03-10T17:19:23.213Z,12.10
2024-03-10T17:22:24.936Z,12.00
2024-03-10T17:25:26.657Z,11.90
2024-03-10T17:28:28.385Z,11.80
2024-03-10T17:31:30.306Z,11.70
2024-03-10T17:34:32.578Z,11.70
2024-03-10T17:37:34.752Z,11.60
2024-03-10T17:40:36.722Z,11.50
2024-03-10T17:43:38.385Z,11.40
2024-03-10T17:46:40.160Z,11.40
2024-03-10T17:49:44.357Z,11.40
2024-03-10T17:52:49.124Z,11.40
2024-03-10T17:55:51.004Z,11.30
2024-03-10T17:58:53.661Z,11.30
2024-03-10T18:01:55.319Z,11.20
2024-03-10T18:04:59.787Z,11.10
2024-03-10T18:08:02.877Z,11.00
2024-03-10T18:11:05.414Z,11.00
2024-03-10T18:14:07.666Z,11.00
2024-03-10T18:17:11.821Z,11.00
2024-03-10T18:20:14.774Z,11.00
2024-03-10T18:23:19.036Z,11.00
2024-03-10T18:26:20.832Z,11.00
2024-03-10T18:29:22.692Z,10.90
2024-03-10T18:32:24.689Z,10.90
2024-03-10T18:35:26.562Z,10.80
2024-03-10T18:38:28.601Z,10.70
2024-03-10T18:41:30.427Z,10.60
2024-03-10T18:44:32.266Z,10.60
2024-03-10T18:47:34.733Z,10.50
2024-03-10T18:50:48.663Z,10.40
2024-03-10T18:53:57.017Z,10.30
2024-03-10T18:56:59.195Z,10.20
2024-03-10T19:00:01.092Z,10.10
2024-03-10T19:03:08.137Z,10.00
2024-03-10T19:06:11.242Z,10.00
2024-03-10T19:09:18.922Z,10.00
2024-03-10T19:12:21.359Z,10.00
2024-03-10T19:15:24.957Z,10.00
2024-03-10T19:18:27.520Z,10.00
2024-03-10T19:21:29.234Z,10.00
2024-03-10T19:24:30.958Z,10.00
2024-03-10T19:27:32.697Z,10.00
2024-03-10T19:30:34.868Z,10.10
2024-03-10T19:33:37.068Z,10.10
2024-03-10T19:36:41.367Z,10.10
2024-03-10T19:39:43.602Z,10.00
2024-03-10T19:42:46.908Z,10.00
2024-03-10T19:45:49.192Z,10.00
2024-03-10T19:48:52.054Z,9.90
2024-03-10T19:51:53.797Z,9.90
2024-03-10T19:54:55.448Z,10.00
2024-03-10T19:57:58.024Z,10.00
2024-03-10T20:01:00.046Z,10.00
2024-03-10T20:04:04.274Z,10.00
2024-03-10T20:07:07.146Z,10.00
2024-03-10T20:10:13.744Z,10.10
2024-03-10T20:13:15.480Z,10.00
2024-03-10T20:16:17.408Z,10.00
2024-03-10T20:19:19.147Z,10.00
2024-03-10T20:22:21.472Z,9.90
2024-03-10T20:25:24.546Z,9.90
2024-03-10T20:28:26.413Z,9.90
2024-03-10T20:31:28.294Z,9.90
2024-03-10T20:34:32.916Z,9.90
2024-03-10T20:37:36.849Z,9.90
2024-03-10T20:40:38.845Z,9.90
2024-03-10T20:43:43.231Z,9.80
2024-03-10T20:46:44.910Z,9.80
2024-03-10T20:49:46.712Z,9.80
2024-03-10T20:52:48.571Z,9.80
2024-03-10T20:55:50.241Z,9.80
2024-03-10T20:58:51.911Z,9.80
2024-03-10T21:01:55.662Z,9.80
2024-03-10T21:04:57.307Z,9.70
2024-03-10T21:07:59.034Z,9.70
2024-03-10T21:11:00.932Z,9.70
2024-03-10T21:14:02.963Z,9.60
2024-03-10T21:17:05.080Z,9.60
2024-03-10T21:20:12.587Z,9.60
2024-03-10T21:23:14.856Z,9.60
2024-03-10T21:26:16.732Z,9.50
2024-03-10T21:29:18.487Z,9.50
2024-03-10T21:32:20.243Z,9.50
2024-03-10T21:35:23.941Z,9.50
2024-03-10T21:38:26.355Z,9.40
2024-03-10T21:41:28.819Z,9.40
2024-03-10T21:44:34.295Z,9.40
2024-03-10T21:47:36.584Z,9.30
2024-03-10T21:50:38.326Z,9.30
2024-03-10T21:53:40.041Z,9.20
2024-03-10T21:56:42.505Z,9.00
2024-03-10T21:59:44.490Z,8.90
2024-03-10T22:02:47.377Z,8.90
2024-03-10T22:05:49.550Z,8.90
2024-03-10T22:08:51.374Z,8.90
2024-03-10T22:11:53.296Z,8.80
2024-03-10T22:14:55.148Z,8.80
2024-03-10T22:17:56.991Z,8.70
2024-03-10T22:20:58.844Z,8.70
2024-03-10T22:24:02.200Z,8.70
2024-03-10T22:27:04.157Z,8.60
2024-03-10T22:30:12.858Z,8.60
2024-03-10T22:33:14.561Z,8.60
2024-03-10T22:36:16.311Z,8.60
2024-03-10T22:39:20.865Z,8.60
2024-03-10T22:42:22.719Z,8.60
2024-03-10T22:45:30.352Z,8.60
2024-03-10T22:48:34.966Z,8.50
2024-03-10T22:51:39.087Z,8.50
2024-03-10T22:54:40.801Z,8.50
2024-03-10T22:57:44.586Z,8.50
2024-03-10T23:00:46.940Z,8.50
2024-03-10T23:03:51.663Z,8.50
2024-03-10T23:06:54.028Z,8.40
2024-03-10T23:09:56.203Z,8.40
2024-03-10T23:12:58.227Z,8.40
2024-03-10T23:16:00.125Z,8.30
2024-03-10T23:19:02.461Z,8.30
2024-03-10T23:22:04.885Z,8.30
2024-03-10T23:25:06.924Z,8.30
2024-03-10T23:28:09.153Z,8.30
2024-03-10T23:31:11.053Z,8.30
2024-03-10T23:34:12.732Z,8.30
2024-03-10T23:37:16.810Z,8.20
2024-03-10T23:40:20.260Z,8.30
2024-03-10T23:43:22.309Z,8.20
2024-03-10T23:46:24.964Z,8.10
2024-03-10T23:49:27.970Z,8.10
2024-03-10T23:52:29.585Z,8.10
2024-03-10T23:55:42.679Z,8.10
2024-03-10T23:58:44.350Z,8.00
